createdAt,value
2022-10-23T00:01:40.366Z,12.18
2022-10-23T00:05:21.849Z,12.17
2022-10-23T00:08:42.656Z,12.17
2022-10-23T00:12:20.267Z,12.15
2022-10-23T00:15:58.080Z,12.12
2022-10-23T00:19:35.523Z,12.09
2022-10-23T00:23:13.721Z,12.07
2022-10-23T00:27:09.877Z,12.04
2022-10-23T00:30:30.204Z,12.01
2022-10-23T00:34:08.668Z,12.04
2022-10-23T00:37:45.525Z,12.06
2022-10-23T00:41:30.167Z,12.04
2022-10-23T00:45:31.032Z,12.03
2022-10-23T00:48:51.677Z,12.02
2022-10-23T00:52:29.890Z,11.96
2022-10-23T00:56:07.328Z,11.94
2022-10-23T01:00:04.687Z,11.93
2022-10-23T01:03:28.132Z,11.93
2022-10-23T01:07:15.267Z,11.90
2022-10-23T01:11:19.774Z,11.88
2022-10-23T01:15:08.767Z,11.80
2022-10-23T01:18:49.810Z,11.75
2022-10-23T01:22:26.898Z,11.71
2022-10-23T01:26:09.944Z,11.70
2022-10-23T01:30:14.610Z,11.76
2022-10-23T01:33:43.514Z,11.77
2022-10-23T01:37:23.361Z,11.76
2022-10-23T01:41:02.271Z,11.71
2022-10-23T01:44:44.884Z,11.65
2022-10-23T01:48:17.753Z,11.59
2022-10-23T01:51:53.062Z,11.56
2022-10-23T01:55:26.092Z,11.59
2022-10-23T01:59:08.939Z,11.55
2022-10-23T02:02:43.732Z,11.51
2022-10-23T02:06:18.437Z,11.48
2022-10-23T02:09:55.554Z,11.44
2022-10-23T02:14:07.119Z,11.41
2022-10-23T02:18:02.923Z,11.41
2022-10-23T02:22:22.515Z,11.40
2022-10-23T02:26:09.242Z,11.43
2022-10-23T02:29:55.568Z,11.44
2022-10-23T02:33:18.046Z,11.47
2022-10-23T02:36:54.271Z,11.45
2022-10-23T02:40:44.297Z,11.41
2022-10-23T02:44:40.906Z,11.35
2022-10-23T02:48:22.967Z,11.34
2022-10-23T02:52:14.925Z,11.34
2022-10-23T02:56:10.744Z,11.39
2022-10-23T02:59:42.310Z,11.47
2022-10-23T03:03:37.314Z,11.45
2022-10-23T03:07:19.275Z,11.44
2022-10-23T03:10:41.635Z,11.47
2022-10-23T03:14:17.964Z,11.54
2022-10-23T03:17:55.614Z,11.54
2022-10-23T03:21:52.030Z,11.50
2022-10-23T03:25:14.732Z,11.43
2022-10-23T03:28:52.555Z,11.35
2022-10-23T03:32:29.905Z,11.31
2022-10-23T03:36:26.459Z,11.28
2022-10-23T03:40:07.472Z,11.29
2022-10-23T03:43:28.636Z,11.32
2022-10-23T03:47:06.209Z,11.35
2022-10-23T03:50:43.977Z,11.33
2022-10-23T03:54:40.206Z,11.34
2022-10-23T03:58:00.761Z,11.37
2022-10-23T04:01:38.560Z,11.37
2022-10-23T04:05:17.001Z,11.39
2022-10-23T04:08:53.891Z,11.40
2022-10-23T04:12:50.390Z,11.42
2022-10-23T04:16:11.097Z,11.45
2022-10-23T04:19:48.855Z,11.49
2022-10-23T04:23:26.353Z,11.48
2022-10-23T04:27:23.050Z,11.43
2022-10-23T04:30:43.574Z,11.41
2022-10-23T04:34:21.269Z,11.39
2022-10-23T04:37:58.835Z,11.36
2022-10-23T04:41:55.302Z,11.35
2022-10-23T04:45:18.783Z,11.33
2022-10-23T04:48:56.698Z,11.30
2022-10-23T04:52:44.738Z,11.29
2022-10-23T04:56:22.334Z,11.31
2022-10-23T05:00:19.044Z,11.29
2022-10-23T05:03:46.268Z,11.33
2022-10-23T05:07:23.736Z,11.34
2022-10-23T05:11:05.816Z,11.35
2022-10-23T05:14:43.274Z,11.31
2022-10-23T05:18:35.750Z,11.23
2022-10-23T05:21:58.804Z,11.19
2022-10-23T05:25:36.639Z,11.21
2022-10-23T05:29:13.924Z,11.22
2022-10-23T05:33:11.415Z,11.16
2022-10-23T05:36:54.479Z,11.09
2022-10-23T05:40:18.039Z,11.07
2022-10-23T05:43:54.965Z,11.06
2022-10-23T05:47:35.846Z,11.05
2022-10-23T05:51:35.894Z,11.07
2022-10-23T05:55:11.768Z,11.12
2022-10-23T05:58:59.370Z,11.14
2022-10-23T06:02:37.238Z,11.21
2022-10-23T06:06:14.742Z,11.22
2022-10-23T06:10:11.960Z,11.21
2022-10-23T06:13:37.438Z,11.17
2022-10-23T06:17:32.959Z,11.20
2022-10-23T06:20:53.773Z,11.28
2022-10-23T06:24:32.205Z,11.31
2022-10-23T06:28:28.158Z,11.35
2022-10-23T06:31:49.355Z,11.33
2022-10-23T06:35:45.455Z,11.31
2022-10-23T06:39:06.725Z,11.33
2022-10-23T06:42:45.915Z,11.34
2022-10-23T06:46:36.755Z,11.37
2022-10-23T06:50:27.937Z,11.40
2022-10-23T06:54:04.832Z,11.36
2022-10-23T06:57:55.599Z,11.34
2022-10-23T07:01:52.236Z,11.37
2022-10-23T07:05:13.881Z,11.41
2022-10-23T07:08:50.969Z,11.41
2022-10-23T07:12:34.955Z,11.39
2022-10-23T07:16:18.713Z,11.44
2022-10-23T07:19:53.481Z,11.50
2022-10-23T07:23:31.250Z,11.58
2022-10-23T07:27:27.582Z,11.69
2022-10-23T07:30:58.519Z,11.79
2022-10-23T07:34:46.640Z,11.78
2022-10-23T07:38:24.205Z,11.76
2022-10-23T07:42:20.990Z,11.87
2022-10-23T07:45:43.111Z,11.98
2022-10-23T07:49:39.518Z,12.03
2022-10-23T07:53:00.393Z,12.11
2022-10-23T07:56:38.240Z,12.14
2022-10-23T08:00:40.500Z,12.17
2022-10-23T08:04:06.534Z,12.23
2022-10-23T08:07:43.316Z,12.22
2022-10-23T08:11:28.741Z,12.26
2022-10-23T08:14:58.566Z,12.37
2022-10-23T08:18:36.866Z,12.50
2022-10-23T08:22:34.595Z,12.59
2022-10-23T08:26:02.962Z,12.64
2022-10-23T08:29:52.877Z,12.61
2022-10-23T08:33:14.762Z,12.65
2022-10-23T08:36:52.577Z,12.69
2022-10-23T08:40:30.548Z,12.74
2022-10-23T08:44:50.258Z,12.88
2022-10-23T08:48:20.269Z,12.97
2022-10-23T08:52:39.556Z,13.12
2022-10-23T08:56:18.261Z,13.41
2022-10-23T08:59:54.684Z,13.59
2022-10-23T09:03:35.744Z,13.79
2022-10-23T09:07:53.375Z,13.97
2022-10-23T09:11:26.379Z,14.17
2022-10-23T09:15:28.297Z,14.27
2022-10-23T09:18:50.255Z,14.32
2022-10-23T09:22:28.907Z,14.32
2022-10-23T09:26:15.038Z,14.37
2022-10-23T09:30:09.553Z,14.43
2022-10-23T09:34:17.582Z,14.46
2022-10-23T09:37:46.454Z,14.60
2022-10-23T09:41:17.944Z,14.75
2022-10-23T09:45:25.198Z,14.81
2022-10-23T09:48:59.815Z,14.91
2022-10-23T09:52:51.762Z,15.00
2022-10-23T09:56:33.318Z,14.99
2022-10-23T09:59:59.251Z,14.91
2022-10-23T10:03:32.998Z,14.77
2022-10-23T10:07:32.150Z,14.74
2022-10-23T10:11:16.125Z,14.74
2022-10-23T10:14:52.014Z,14.84
2022-10-23T10:18:28.446Z,15.05
2022-10-23T10:22:04.963Z,15.16
2022-10-23T10:25:47.486Z,15.17
2022-10-23T10:29:18.948Z,15.13
2022-10-23T10:33:17.223Z,15.12
2022-10-23T10:36:55.720Z,15.30
2022-10-23T10:40:46.187Z,15.32
2022-10-23T10:44:47.362Z,15.41
2022-10-23T10:48:38.686Z,15.51
2022-10-23T10:52:22.656Z,15.65
2022-10-23T10:56:02.001Z,15.79
2022-10-23T10:59:57.006Z,15.86
2022-10-23T11:03:40.288Z,15.87
2022-10-23T11:07:08.197Z,15.87
2022-10-23T11:10:45.288Z,15.90
2022-10-23T11:14:21.050Z,15.81
2022-10-23T11:18:02.885Z,15.78
2022-10-23T11:22:11.318Z,15.94
2022-10-23T11:25:58.202Z,15.89
2022-10-23T11:29:41.077Z,15.79
2022-10-23T11:33:30.759Z,15.75
2022-10-23T11:36:58.597Z,15.66
2022-10-23T11:40:53.286Z,15.76
2022-10-23T11:44:43.949Z,15.80
2022-10-23T11:48:43.531Z,15.91
2022-10-23T11:52:05.941Z,16.19
2022-10-23T11:56:13.985Z,16.49
2022-10-23T11:59:56.498Z,16.85
2022-10-23T12:03:49.309Z,16.90
2022-10-23T12:07:21.314Z,17.11
2022-10-23T12:10:53.225Z,17.17
2022-10-23T12:14:46.393Z,17.14
2022-10-23T12:18:14.614Z,17.14
2022-10-23T12:21:44.965Z,17.19
2022-10-23T12:25:25.152Z,17.36
2022-10-23T12:29:42.286Z,17.66
2022-10-23T12:33:35.350Z,17.71
2022-10-23T12:37:07.836Z,17.83
2022-10-23T12:40:34.060Z,18.01
2022-10-23T12:44:30.921Z,18.16
2022-10-23T12:47:52.490Z,18.27
2022-10-23T12:51:32.553Z,19.10
2022-10-23T12:55:14.504Z,20.70
2022-10-23T12:59:13.488Z,21.83
2022-10-23T13:03:00.495Z,22.49
2022-10-23T13:06:22.970Z,23.42
2022-10-23T13:10:00.155Z,24.00
2022-10-23T13:13:35.059Z,24.32
2022-10-23T13:17:45.936Z,23.92
2022-10-23T13:21:17.438Z,23.36
2022-10-23T13:24:44.685Z,23.00
2022-10-23T13:28:43.190Z,22.84
2022-10-23T13:32:23.379Z,22.48
2022-10-23T13:36:20.412Z,22.01
2022-10-23T13:39:41.893Z,21.79
2022-10-23T13:43:26.819Z,21.19
2022-10-23T13:46:57.025Z,21.02
2022-10-23T13:50:53.772Z,20.85
2022-10-23T13:54:21.688Z,20.31
2022-10-23T13:58:11.297Z,20.44
2022-10-23T14:01:51.732Z,21.14
2022-10-23T14:05:13.189Z,21.28
2022-10-23T14:08:51.099Z,21.58
2022-10-23T14:12:28.358Z,21.94
2022-10-23T14:16:06.799Z,21.75
2022-10-23T14:19:43.590Z,21.09
2022-10-23T14:23:40.076Z,20.66
2022-10-23T14:27:00.607Z,20.53
2022-10-23T14:30:38.352Z,20.17
2022-10-23T14:34:15.943Z,19.80
2022-10-23T14:37:53.636Z,18.71
2022-10-23T14:41:31.326Z,18.01
2022-10-23T14:45:09.624Z,17.64
2022-10-23T14:48:49.400Z,17.38
2022-10-23T14:52:24.755Z,17.20
2022-10-23T14:56:04.036Z,16.98
2022-10-23T14:59:39.786Z,16.66
2022-10-23T15:03:18.403Z,16.37
2022-10-23T15:06:55.030Z,16.08
2022-10-23T15:10:32.863Z,15.71
2022-10-23T15:14:11.182Z,15.33
2022-10-23T15:17:48.238Z,15.00
2022-10-23T15:21:46.255Z,14.64
2022-10-23T15:25:07.931Z,14.29
2022-10-23T15:29:04.780Z,14.02
2022-10-23T15:32:25.642Z,13.75
2022-10-23T15:36:03.382Z,13.51
2022-10-23T15:40:02.185Z,13.26
2022-10-23T15:43:23.518Z,13.10
2022-10-23T15:47:01.375Z,12.93
2022-10-23T15:50:58.653Z,12.79
2022-10-23T15:54:20.525Z,12.63
2022-10-23T15:58:01.873Z,12.45
2022-10-23T16:01:38.140Z,12.30
2022-10-23T16:05:12.471Z,12.20
2022-10-23T16:09:12.441Z,12.08
2022-10-23T16:12:33.452Z,11.93
2022-10-23T16:16:31.197Z,11.76
2022-10-23T16:20:10.942Z,11.61
2022-10-23T16:23:33.422Z,11.52
2022-10-23T16:27:28.574Z,11.50
2022-10-23T16:30:50.554Z,11.46
2022-10-23T16:34:28.279Z,11.43
2022-10-23T16:38:05.913Z,11.42
2022-10-23T16:42:02.926Z,11.36
2022-10-23T16:45:37.108Z,11.27
2022-10-23T16:49:13.987Z,11.14
2022-10-23T16:52:53.291Z,11.02
2022-10-23T16:56:29.745Z,10.92
2022-10-23T17:00:06.869Z,10.84
2022-10-23T17:03:48.174Z,10.78
2022-10-23T17:11:13.897Z,10.79
2022-10-23T17:14:38.379Z,10.73
2022-10-23T17:18:15.324Z,10.66
2022-10-23T17:21:53.318Z,10.60
2022-10-23T17:25:29.328Z,10.60
2022-10-23T17:29:25.920Z,10.61
2022-10-23T17:32:46.930Z,10.59
2022-10-23T17:36:26.985Z,10.55
2022-10-23T17:40:24.919Z,10.50
2022-10-23T17:43:47.168Z,10.46
2022-10-23T17:47:43.987Z,10.44
2022-10-23T17:51:10.068Z,10.43
2022-10-23T17:54:45.454Z,10.45
2022-10-23T17:58:21.253Z,10.48
2022-10-23T18:02:00.801Z,10.48
2022-10-23T18:05:36.456Z,10.47
2022-10-23T18:09:13.652Z,10.43
2022-10-23T18:12:51.446Z,10.39
2022-10-23T18:16:48.271Z,10.33
2022-10-23T18:20:11.970Z,10.28
2022-10-23T18:24:06.376Z,10.25
2022-10-23T18:27:27.141Z,10.26
2022-10-23T18:31:08.410Z,10.30
2022-10-23T18:34:42.526Z,10.34
2022-10-23T18:38:20.063Z,10.35
2022-10-23T18:42:16.643Z,10.28
2022-10-23T18:45:37.218Z,10.16
2022-10-23T18:49:16.980Z,10.09
2022-10-23T18:52:53.070Z,10.04
2022-10-23T18:56:30.752Z,10.01
2022-10-23T19:00:10.650Z,10.02
2022-10-23T19:03:45.897Z,10.05
2022-10-23T19:07:23.528Z,10.10
2022-10-23T19:11:01.322Z,10.08
2022-10-23T19:14:59.426Z,9.99
2022-10-23T19:18:20.457Z,9.96
2022-10-23T19:22:17.362Z,9.96
2022-10-23T19:25:38.210Z,9.98
2022-10-23T19:29:39.258Z,9.97
2022-10-23T19:32:59.787Z,9.98
2022-10-23T19:36:56.114Z,9.92
2022-10-23T19:40:35.656Z,9.83
2022-10-23T19:43:56.067Z,9.72
2022-10-23T19:47:52.734Z,9.67
2022-10-23T19:51:15.493Z,9.65
2022-10-23T19:55:12.165Z,9.68
2022-10-23T19:58:33.347Z,9.67
2022-10-23T20:02:10.571Z,9.59
2022-10-23T20:05:48.124Z,9.52
2022-10-23T20:09:26.284Z,9.56
2022-10-23T20:13:18.695Z,9.62
2022-10-23T20:16:44.980Z,9.70
2022-10-23T20:20:41.641Z,9.75
2022-10-23T20:24:02.593Z,9.75
2022-10-23T20:27:58.606Z,9.72
2022-10-23T20:31:40.766Z,9.66
2022-10-23T20:35:01.603Z,9.66
2022-10-23T20:38:39.152Z,9.70
2022-10-23T20:42:16.832Z,9.73
2022-10-23T20:46:13.711Z,9.74
2022-10-23T20:49:34.424Z,9.73
2022-10-23T20:53:31.620Z,9.68
2022-10-23T20:56:52.644Z,9.65
2022-10-23T21:00:30.528Z,9.60
2022-10-23T21:04:08.400Z,9.59
2022-10-23T21:08:05.078Z,9.60
2022-10-23T21:11:32.145Z,9.62
2022-10-23T21:15:22.515Z,9.63
2022-10-23T21:18:46.427Z,9.59
2022-10-23T21:22:20.841Z,9.57
2022-10-23T21:26:18.853Z,9.57
2022-10-23T21:29:39.283Z,9.58
2022-10-23T21:33:36.397Z,9.56
2022-10-23T21:37:12.468Z,9.51
2022-10-23T21:40:37.903Z,9.49
2022-10-23T21:44:13.610Z,9.50
2022-10-23T21:47:50.330Z,9.53
2022-10-23T21:51:31.632Z,9.57
2022-10-23T21:55:06.444Z,9.59
2022-10-23T21:58:43.560Z,9.62
2022-10-23T22:02:40.034Z,9.66
2022-10-23T22:06:00.921Z,9.69
2022-10-23T22:09:38.794Z,9.66
2022-10-23T22:13:16.314Z,9.61
2022-10-23T22:17:12.867Z,9.58
2022-10-23T22:20:33.706Z,9.55
2022-10-23T22:24:30.083Z,9.54
2022-10-23T22:27:50.641Z,9.59
2022-10-23T22:31:31.646Z,9.61
2022-10-23T22:35:06.419Z,9.65
2022-10-23T22:39:03.161Z,9.68
2022-10-23T22:42:23.705Z,9.69
2022-10-23T22:46:03.156Z,9.67
2022-10-23T22:49:39.404Z,9.65
2022-10-23T22:53:16.850Z,9.66
2022-10-23T22:56:54.486Z,9.67
2022-10-23T23:00:32.239Z,9.73
2022-10-23T23:04:19.865Z,9.76
2022-10-23T23:08:06.475Z,9.74
2022-10-23T23:11:27.953Z,9.68
2022-10-23T23:15:23.667Z,9.59
2022-10-23T23:18:44.204Z,9.53
2022-10-23T23:22:22.118Z,9.51
2022-10-23T23:25:59.675Z,9.46
2022-10-23T23:29:57.179Z,9.45
2022-10-23T23:33:19.452Z,9.46
2022-10-23T23:37:14.785Z,9.43
2022-10-23T23:40:54.468Z,9.38
2022-10-23T23:44:15.111Z,9.35
2022-10-23T23:48:11.516Z,9.33
2022-10-23T23:51:51.685Z,9.31
2022-10-23T23:55:31.456Z,9.32
2022-10-23T23:58:52.486Z,9.33
